Fayetteville, North Carolina
Current Conditions -  °F | °C
As of 10:53 PM on Wednesday 28 Jan 2015 (Local Time) from KFAY Reporting Station
Clear Clear  
Wind Chill: 29°   Ceiling: Unl
Heat Index: 29°   Visibility: 10mi
Dew Point: 19°   Wind: 3mph
Humidity: 67%   Direction: 260°W
Pressure: 30.34"   Gusts: NA
Location:  35.05°N, 78.88°W
Report Text: KFAY 290353Z AUTO 26003KT 10SM CLR M02/M07 A3034 RMK AO2 SLP269 T10171072
Loading
Personal Weather Stations






























Interactive Weather Map New forecast layout! Learn more

10-Day Weather Forecast

Advertisements
Track Severe Weather on mobile